sensor_id;sensor_type;location;lat;lon;timestamp;temperature;humidity
11922;DHT22;6021;51.182;3.160;2023-04-15T00:01:39;9.20;99.90
11922;DHT22;6021;51.182;3.160;2023-04-15T00:04:08;9.00;99.90
11922;DHT22;6021;51.182;3.160;2023-04-15T00:06:37;9.00;99.90
11922;DHT22;6021;51.182;3.160;2023-04-15T00:09:06;8.90;99.90
11922;DHT22;6021;51.182;3.160;2023-04-15T00:11:34;9.20;99.90
11922;DHT22;6021;51.182;3.160;2023-04-15T00:14:03;9.00;99.90
11922;DHT22;6021;51.182;3.160;2023-04-15T00:16:32;8.90;99.90
11922;DHT22;6021;51.182;3.160;2023-04-15T00:19:00;8.90;99.90
11922;DHT22;6021;51.182;3.160;2023-04-15T00:21:29;9.00;99.90
11922;DHT22;6021;51.182;3.160;2023-04-15T00:23:58;8.90;99.90
11922;DHT22;6021;51.182;3.160;2023-04-15T00:26:28;8.90;99.90
11922;DHT22;6021;51.182;3.160;2023-04-15T00:28:56;9.00;99.90
11922;DHT22;6021;51.182;3.160;2023-04-15T00:31:24;8.80;99.90
11922;DHT22;6021;51.182;3.160;2023-04-15T00:33:53;9.00;99.90
11922;DHT22;6021;51.182;3.160;2023-04-15T00:36:21;8.90;99.90
11922;DHT22;6021;51.182;3.160;2023-04-15T00:38:51;8.80;99.90
11922;DHT22;6021;51.182;3.160;2023-04-15T00:41:19;8.80;99.90
11922;DHT22;6021;51.182;3.160;2023-04-15T00:43:49;8.90;99.90
11922;DHT22;6021;51.182;3.160;2023-04-15T00:46:18;8.90;99.90
11922;DHT22;6021;51.182;3.160;2023-04-15T00:48:50;8.90;99.90
11922;DHT22;6021;51.182;3.160;2023-04-15T00:51:19;9.00;99.90
11922;DHT22;6021;51.182;3.160;2023-04-15T00:53:47;8.80;99.90
11922;DHT22;6021;51.182;3.160;2023-04-15T00:56:16;9.00;99.90
11922;DHT22;6021;51.182;3.160;2023-04-15T00:58:44;8.80;99.90
11922;DHT22;6021;51.182;3.160;2023-04-15T01:01:12;8.80;99.90
11922;DHT22;6021;51.182;3.160;2023-04-15T01:03:41;8.60;99.90
11922;DHT22;6021;51.182;3.160;2023-04-15T01:06:09;8.90;99.90
11922;DHT22;6021;51.182;3.160;2023-04-15T01:08:38;8.90;99.90
11922;DHT22;6021;51.182;3.160;2023-04-15T01:11:07;8.80;99.90
11922;DHT22;6021;51.182;3.160;2023-04-15T01:13:35;8.70;99.90
11922;DHT22;6021;51.182;3.160;2023-04-15T01:16:04;8.90;99.90
11922;DHT22;6021;51.182;3.160;2023-04-15T01:18:35;8.70;99.90
11922;DHT22;6021;51.182;3.160;2023-04-15T01:21:05;8.70;99.90
11922;DHT22;6021;51.182;3.160;2023-04-15T01:23:36;8.70;99.90
11922;DHT22;6021;51.182;3.160;2023-04-15T01:26:23;8.70;99.90
11922;DHT22;6021;51.182;3.160;2023-04-15T01:28:48;8.70;99.90
11922;DHT22;6021;51.182;3.160;2023-04-15T01:31:17;8.70;99.90
11922;DHT22;6021;51.182;3.160;2023-04-15T01:33:45;8.90;99.90
11922;DHT22;6021;51.182;3.160;2023-04-15T01:36:14;9.00;99.90
11922;DHT22;6021;51.182;3.160;2023-04-15T01:38:43;8.50;99.90
11922;DHT22;6021;51.182;3.160;2023-04-15T01:41:15;8.50;99.90
11922;DHT22;6021;51.182;3.160;2023-04-15T01:43:43;8.50;99.90
11922;DHT22;6021;51.182;3.160;2023-04-15T01:46:12;8.60;99.90
11922;DHT22;6021;51.182;3.160;2023-04-15T01:48:40;8.60;99.90
11922;DHT22;6021;51.182;3.160;2023-04-15T01:51:09;8.60;99.90
11922;DHT22;6021;51.182;3.160;2023-04-15T01:53:37;8.50;99.90
11922;DHT22;6021;51.182;3.160;2023-04-15T01:56:06;8.60;99.90
11922;DHT22;6021;51.182;3.160;2023-04-15T01:58:35;8.50;99.90
11922;DHT22;6021;51.182;3.160;2023-04-15T02:01:08;8.60;99.90
11922;DHT22;6021;51.182;3.160;2023-04-15T02:03:44;8.60;99.90
11922;DHT22;6021;51.182;3.160;2023-04-15T02:06:14;8.50;99.90
11922;DHT22;6021;51.182;3.160;2023-04-15T02:08:43;8.50;99.90
11922;DHT22;6021;51.182;3.160;2023-04-15T02:11:11;8.50;99.90
11922;DHT22;6021;51.182;3.160;2023-04-15T02:13:40;8.50;99.90
11922;DHT22;6021;51.182;3.160;2023-04-15T02:16:19;8.50;99.90
11922;DHT22;6021;51.182;3.160;2023-04-15T02:18:47;8.40;99.90
11922;DHT22;6021;51.182;3.160;2023-04-15T02:21:18;8.50;99.90
11922;DHT22;6021;51.182;3.160;2023-04-15T02:23:46;8.60;99.90
11922;DHT22;6021;51.182;3.160;2023-04-15T02:26:14;8.50;99.90
11922;DHT22;6021;51.182;3.160;2023-04-15T02:28:43;8.50;99.90
11922;DHT22;6021;51.182;3.160;2023-04-15T02:31:11;8.60;99.90
11922;DHT22;6021;51.182;3.160;2023-04-15T02:33:40;8.50;99.90
11922;DHT22;6021;51.182;3.160;2023-04-15T02:36:08;8.50;99.90
11922;DHT22;6021;51.182;3.160;2023-04-15T02:38:38;8.50;99.90
11922;DHT22;6021;51.182;3.160;2023-04-15T02:41:09;8.50;99.90
11922;DHT22;6021;51.182;3.160;2023-04-15T02:43:37;8.70;99.90
11922;DHT22;6021;51.182;3.160;2023-04-15T02:46:06;8.60;99.90
11922;DHT22;6021;51.182;3.160;2023-04-15T02:48:36;8.60;99.90
11922;DHT22;6021;51.182;3.160;2023-04-15T02:51:16;8.40;99.90
11922;DHT22;6021;51.182;3.160;2023-04-15T02:53:42;8.60;99.90
11922;DHT22;6021;51.182;3.160;2023-04-15T02:56:12;8.40;99.90
11922;DHT22;6021;51.182;3.160;2023-04-15T02:58:43;8.40;99.90
11922;DHT22;6021;51.182;3.160;2023-04-15T03:01:12;8.40;99.90
11922;DHT22;6021;51.182;3.160;2023-04-15T03:03:40;8.40;99.90
11922;DHT22;6021;51.182;3.160;2023-04-15T03:06:09;8.40;99.90
11922;DHT22;6021;51.182;3.160;2023-04-15T03:08:37;8.60;99.90
11922;DHT22;6021;51.182;3.160;2023-04-15T03:11:06;8.50;99.90
11922;DHT22;6021;51.182;3.160;2023-04-15T03:13:34;8.40;99.90
11922;DHT22;6021;51.182;3.160;2023-04-15T03:16:03;8.40;99.90
11922;DHT22;6021;51.182;3.160;2023-04-15T03:18:36;8.60;99.90
11922;DHT22;6021;51.182;3.160;2023-04-15T03:21:08;8.40;99.90
11922;DHT22;6021;51.182;3.160;2023-04-15T03:23:40;8.70;99.90
11922;DHT22;6021;51.182;3.160;2023-04-15T03:26:10;8.50;99.90
11922;DHT22;6021;51.182;3.160;2023-04-15T03:28:40;8.40;99.90
11922;DHT22;6021;51.182;3.160;2023-04-15T03:31:08;8.40;99.90
11922;DHT22;6021;51.182;3.160;2023-04-15T03:33:43;8.40;99.90
11922;DHT22;6021;51.182;3.160;2023-04-15T03:36:12;8.60;99.90
11922;DHT22;6021;51.182;3.160;2023-04-15T03:38:43;8.50;99.90
11922;DHT22;6021;51.182;3.160;2023-04-15T03:41:12;8.60;99.90
11922;DHT22;6021;51.182;3.160;2023-04-15T03:43:40;8.60;99.90
11922;DHT22;6021;51.182;3.160;2023-04-15T03:46:09;8.40;99.90
11922;DHT22;6021;51.182;3.160;2023-04-15T03:48:39;8.40;99.90
11922;DHT22;6021;51.182;3.160;2023-04-15T03:51:10;8.20;99.90
11922;DHT22;6021;51.182;3.160;2023-04-15T03:53:43;8.60;99.90
11922;DHT22;6021;51.182;3.160;2023-04-15T03:56:13;8.60;99.90
11922;DHT22;6021;51.182;3.160;2023-04-15T03:58:47;8.60;99.90
11922;DHT22;6021;51.182;3.160;2023-04-15T04:01:13;8.60;99.90
11922;DHT22;6021;51.182;3.160;2023-04-15T04:03:56;8.60;99.90
11922;DHT22;6021;51.182;3.160;2023-04-15T04:06:14;8.50;99.90
11922;DHT22;6021;51.182;3.160;2023-04-15T04:11:27;8.50;99.90
11922;DHT22;6021;51.182;3.160;2023-04-15T04:13:55;8.40;99.90
11922;DHT22;6021;51.182;3.160;2023-04-15T04:16:23;8.50;99.90
11922;DHT22;6021;51.182;3.160;2023-04-15T04:18:52;8.50;99.90
11922;DHT22;6021;51.182;3.160;2023-04-15T04:21:20;8.40;99.90
11922;DHT22;6021;51.182;3.160;2023-04-15T04:23:50;8.40;99.90
11922;DHT22;6021;51.182;3.160;2023-04-15T04:26:19;8.60;99.90
11922;DHT22;6021;51.182;3.160;2023-04-15T04:28:47;8.60;99.90
11922;DHT22;6021;51.182;3.160;2023-04-15T04:31:16;8.60;99.90
11922;DHT22;6021;51.182;3.160;2023-04-15T04:33:49;8.60;99.90
11922;DHT22;6021;51.182;3.160;2023-04-15T04:36:17;8.60;99.90
11922;DHT22;6021;51.182;3.160;2023-04-15T04:38:45;8.80;99.90
11922;DHT22;6021;51.182;3.160;2023-04-15T04:41:14;8.60;99.90
11922;DHT22;6021;51.182;3.160;2023-04-15T04:43:42;8.60;99.90
11922;DHT22;6021;51.182;3.160;2023-04-15T04:46:11;8.80;99.90
11922;DHT22;6021;51.182;3.160;2023-04-15T04:48:39;8.90;99.90
11922;DHT22;6021;51.182;3.160;2023-04-15T04:51:08;8.90;99.90
11922;DHT22;6021;51.182;3.160;2023-04-15T04:53:36;8.70;99.90
11922;DHT22;6021;51.182;3.160;2023-04-15T04:56:05;8.70;99.90
11922;DHT22;6021;51.182;3.160;2023-04-15T04:58:33;8.90;99.90
11922;DHT22;6021;51.182;3.160;2023-04-15T05:01:05;8.60;99.90
11922;DHT22;6021;51.182;3.160;2023-04-15T05:03:34;8.70;99.90
11922;DHT22;6021;51.182;3.160;2023-04-15T05:06:02;8.60;99.90
11922;DHT22;6021;51.182;3.160;2023-04-15T05:08:32;8.80;99.90
11922;DHT22;6021;51.182;3.160;2023-04-15T05:11:01;8.80;99.90
11922;DHT22;6021;51.182;3.160;2023-04-15T05:13:30;8.80;99.90
11922;DHT22;6021;51.182;3.160;2023-04-15T05:15:58;8.60;99.90
11922;DHT22;6021;51.182;3.160;2023-04-15T05:18:27;8.70;99.90
11922;DHT22;6021;51.182;3.160;2023-04-15T05:20:55;8.80;99.90
11922;DHT22;6021;51.182;3.160;2023-04-15T05:23:24;8.80;99.90
11922;DHT22;6021;51.182;3.160;2023-04-15T05:25:52;8.80;99.90
11922;DHT22;6021;51.182;3.160;2023-04-15T05:28:20;8.50;99.90
11922;DHT22;6021;51.182;3.160;2023-04-15T05:30:54;8.60;99.90
11922;DHT22;6021;51.182;3.160;2023-04-15T05:33:19;8.50;99.90
11922;DHT22;6021;51.182;3.160;2023-04-15T05:35:47;8.50;99.90
11922;DHT22;6021;51.182;3.160;2023-04-15T05:38:15;8.60;99.90
11922;DHT22;6021;51.182;3.160;2023-04-15T05:40:43;8.50;99.90
11922;DHT22;6021;51.182;3.160;2023-04-15T05:43:12;8.60;99.90
11922;DHT22;6021;51.182;3.160;2023-04-15T05:45:40;8.40;99.90
11922;DHT22;6021;51.182;3.160;2023-04-15T05:48:09;8.60;99.90
11922;DHT22;6021;51.182;3.160;2023-04-15T05:50:42;8.60;99.90
11922;DHT22;6021;51.182;3.160;2023-04-15T05:53:10;8.80;99.90
11922;DHT22;6021;51.182;3.160;2023-04-15T05:55:38;8.80;99.90
11922;DHT22;6021;51.182;3.160;2023-04-15T05:58:07;8.80;99.90
11922;DHT22;6021;51.182;3.160;2023-04-15T06:00:36;8.80;99.90
11922;DHT22;6021;51.182;3.160;2023-04-15T06:03:04;8.90;99.90
11922;DHT22;6021;51.182;3.160;2023-04-15T06:05:35;8.60;99.90
11922;DHT22;6021;51.182;3.160;2023-04-15T06:08:04;8.80;99.90
11922;DHT22;6021;51.182;3.160;2023-04-15T06:10:33;8.70;99.90
11922;DHT22;6021;51.182;3.160;2023-04-15T06:13:04;8.90;99.90
11922;DHT22;6021;51.182;3.160;2023-04-15T06:15:33;8.70;99.90
11922;DHT22;6021;51.182;3.160;2023-04-15T06:18:02;8.80;99.90
11922;DHT22;6021;51.182;3.160;2023-04-15T06:20:30;8.80;99.90
11922;DHT22;6021;51.182;3.160;2023-04-15T06:23:03;8.80;99.90
11922;DHT22;6021;51.182;3.160;2023-04-15T06:25:28;8.70;99.90
11922;DHT22;6021;51.182;3.160;2023-04-15T06:27:57;8.70;99.90
11922;DHT22;6021;51.182;3.160;2023-04-15T06:30:25;8.70;99.90
11922;DHT22;6021;51.182;3.160;2023-04-15T06:32:54;8.70;99.90
11922;DHT22;6021;51.182;3.160;2023-04-15T06:35:23;8.80;99.90
11922;DHT22;6021;51.182;3.160;2023-04-15T06:37:51;8.80;99.90
11922;DHT22;6021;51.182;3.160;2023-04-15T06:40:22;8.80;99.90
11922;DHT22;6021;51.182;3.160;2023-04-15T06:42:51;8.90;99.90
11922;DHT22;6021;51.182;3.160;2023-04-15T06:45:19;8.90;99.90
11922;DHT22;6021;51.182;3.160;2023-04-15T06:47:48;8.90;99.90
11922;DHT22;6021;51.182;3.160;2023-04-15T06:50:16;9.00;99.90
11922;DHT22;6021;51.182;3.160;2023-04-15T06:52:45;9.10;99.90
11922;DHT22;6021;51.182;3.160;2023-04-15T06:55:14;9.00;99.90
11922;DHT22;6021;51.182;3.160;2023-04-15T06:57:42;9.10;99.90
11922;DHT22;6021;51.182;3.160;2023-04-15T07:00:11;9.10;99.90
11922;DHT22;6021;51.182;3.160;2023-04-15T07:02:40;9.10;99.90
11922;DHT22;6021;51.182;3.160;2023-04-15T07:05:08;9.20;99.90
11922;DHT22;6021;51.182;3.160;2023-04-15T07:07:42;9.10;99.90
11922;DHT22;6021;51.182;3.160;2023-04-15T07:10:11;9.20;99.90
11922;DHT22;6021;51.182;3.160;2023-04-15T07:12:41;9.20;99.90
11922;DHT22;6021;51.182;3.160;2023-04-15T07:15:10;9.30;99.90
11922;DHT22;6021;51.182;3.160;2023-04-15T07:17:40;9.40;99.90
11922;DHT22;6021;51.182;3.160;2023-04-15T07:20:09;9.50;99.90
11922;DHT22;6021;51.182;3.160;2023-04-15T07:22:39;9.30;99.90
11922;DHT22;6021;51.182;3.160;2023-04-15T07:25:08;9.30;99.90
11922;DHT22;6021;51.182;3.160;2023-04-15T07:27:36;9.40;99.90
11922;DHT22;6021;51.182;3.160;2023-04-15T07:30:06;9.40;99.90
11922;DHT22;6021;51.182;3.160;2023-04-15T07:32:35;9.30;99.90
11922;DHT22;6021;51.182;3.160;2023-04-15T07:35:04;9.40;99.90
11922;DHT22;6021;51.182;3.160;2023-04-15T07:37:32;9.40;99.90
11922;DHT22;6021;51.182;3.160;2023-04-15T07:40:01;9.40;99.90
11922;DHT22;6021;51.182;3.160;2023-04-15T07:42:31;9.50;99.90
11922;DHT22;6021;51.182;3.160;2023-04-15T07:44:59;9.70;99.90
11922;DHT22;6021;51.182;3.160;2023-04-15T07:47:28;9.60;99.90
11922;DHT22;6021;51.182;3.160;2023-04-15T07:49:56;9.60;99.90
11922;DHT22;6021;51.182;3.160;2023-04-15T07:52:25;9.70;99.90
11922;DHT22;6021;51.182;3.160;2023-04-15T07:54:53;9.70;99.90
11922;DHT22;6021;51.182;3.160;2023-04-15T07:57:22;9.80;99.90
11922;DHT22;6021;51.182;3.160;2023-04-15T07:59:50;9.70;99.90
11922;DHT22;6021;51.182;3.160;2023-04-15T08:02:18;9.70;99.90
11922;DHT22;6021;51.182;3.160;2023-04-15T08:04:47;9.90;99.90
11922;DHT22;6021;51.182;3.160;2023-04-15T08:07:16;10.00;99.90
11922;DHT22;6021;51.182;3.160;2023-04-15T08:09:44;10.40;99.90
11922;DHT22;6021;51.182;3.160;2023-04-15T08:12:13;10.40;99.90
11922;DHT22;6021;51.182;3.160;2023-04-15T08:14:42;10.70;99.90
11922;DHT22;6021;51.182;3.160;2023-04-15T08:17:10;10.70;99.90
11922;DHT22;6021;51.182;3.160;2023-04-15T08:19:39;10.80;99.90
11922;DHT22;6021;51.182;3.160;2023-04-15T08:22:09;11.00;99.90
11922;DHT22;6021;51.182;3.160;2023-04-15T08:24:38;11.00;99.90
11922;DHT22;6021;51.182;3.160;2023-04-15T08:27:06;10.70;99.90
11922;DHT22;6021;51.182;3.160;2023-04-15T08:29:35;10.90;99.90
11922;DHT22;6021;51.182;3.160;2023-04-15T08:32:04;10.70;99.90
11922;DHT22;6021;51.182;3.160;2023-04-15T08:34:37;10.70;99.90
11922;DHT22;6021;51.182;3.160;2023-04-15T08:37:05;10.70;99.90
11922;DHT22;6021;51.182;3.160;2023-04-15T08:39:33;11.00;99.90
11922;DHT22;6021;51.182;3.160;2023-04-15T08:42:03;10.90;99.90
11922;DHT22;6021;51.182;3.160;2023-04-15T08:44:34;11.00;99.90
11922;DHT22;6021;51.182;3.160;2023-04-15T08:47:07;11.00;99.90
11922;DHT22;6021;51.182;3.160;2023-04-15T08:49:42;11.30;99.90
11922;DHT22;6021;51.182;3.160;2023-04-15T08:52:11;11.10;99.90
11922;DHT22;6021;51.182;3.160;2023-04-15T08:54:39;11.40;99.90
11922;DHT22;6021;51.182;3.160;2023-04-15T08:57:09;11.20;99.90
11922;DHT22;6021;51.182;3.160;2023-04-15T08:59:38;11.20;99.90
11922;DHT22;6021;51.182;3.160;2023-04-15T09:02:07;11.30;99.90
11922;DHT22;6021;51.182;3.160;2023-04-15T09:04:35;11.30;99.90
11922;DHT22;6021;51.182;3.160;2023-04-15T09:07:05;11.70;99.90
11922;DHT22;6021;51.182;3.160;2023-04-15T09:09:33;11.60;99.90
11922;DHT22;6021;51.182;3.160;2023-04-15T09:12:03;11.70;99.90
11922;DHT22;6021;51.182;3.160;2023-04-15T09:14:32;12.00;99.90
11922;DHT22;6021;51.182;3.160;2023-04-15T09:17:02;12.00;99.90
11922;DHT22;6021;51.182;3.160;2023-04-15T09:19:31;12.10;99.90
11922;DHT22;6021;51.182;3.160;2023-04-15T09:22:03;12.10;99.90
11922;DHT22;6021;51.182;3.160;2023-04-15T09:24:37;12.10;99.90
11922;DHT22;6021;51.182;3.160;2023-04-15T09:27:06;12.00;99.90
11922;DHT22;6021;51.182;3.160;2023-04-15T09:29:35;12.00;99.90
11922;DHT22;6021;51.182;3.160;2023-04-15T09:32:10;12.00;99.90
11922;DHT22;6021;51.182;3.160;2023-04-15T09:34:39;12.00;99.90
11922;DHT22;6021;51.182;3.160;2023-04-15T09:37:08;12.00;99.90
11922;DHT22;6021;51.182;3.160;2023-04-15T09:39:56;12.40;99.90
11922;DHT22;6021;51.182;3.160;2023-04-15T09:42:26;12.30;99.90
11922;DHT22;6021;51.182;3.160;2023-04-15T09:44:54;12.20;99.90
11922;DHT22;6021;51.182;3.160;2023-04-15T09:47:30;12.20;99.90
11922;DHT22;6021;51.182;3.160;2023-04-15T09:50:07;12.20;99.90
11922;DHT22;6021;51.182;3.160;2023-04-15T09:52:40;12.10;99.90
11922;DHT22;6021;51.182;3.160;2023-04-15T09:55:06;12.40;99.90
11922;DHT22;6021;51.182;3.160;2023-04-15T09:57:36;11.90;99.90
11922;DHT22;6021;51.182;3.160;2023-04-15T10:00:07;12.10;99.90
11922;DHT22;6021;51.182;3.160;2023-04-15T10:02:39;12.40;99.90
11922;DHT22;6021;51.182;3.160;2023-04-15T10:05:13;12.50;99.90
11922;DHT22;6021;51.182;3.160;2023-04-15T10:07:45;12.90;99.90
11922;DHT22;6021;51.182;3.160;2023-04-15T10:10:14;12.80;99.90
11922;DHT22;6021;51.182;3.160;2023-04-15T10:12:44;12.80;73.90
11922;DHT22;6021;51.182;3.160;2023-04-15T10:15:15;12.70;53.90
11922;DHT22;6021;51.182;3.160;2023-04-15T10:17:47;12.70;80.30
11922;DHT22;6021;51.182;3.160;2023-04-15T10:20:19;12.70;88.70
11922;DHT22;6021;51.182;3.160;2023-04-15T10:22:48;12.70;44.80
11922;DHT22;6021;51.182;3.160;2023-04-15T10:25:17;12.50;34.40
11922;DHT22;6021;51.182;3.160;2023-04-15T10:27:49;12.60;26.00
11922;DHT22;6021;51.182;3.160;2023-04-15T10:30:19;12.80;35.80
11922;DHT22;6021;51.182;3.160;2023-04-15T10:32:48;13.10;36.60
11922;DHT22;6021;51.182;3.160;2023-04-15T10:35:18;13.20;1.00
11922;DHT22;6021;51.182;3.160;2023-04-15T10:37:48;13.10;1.00
11922;DHT22;6021;51.182;3.160;2023-04-15T10:40:29;13.10;1.00
11922;DHT22;6021;51.182;3.160;2023-04-15T10:43:00;13.10;1.40
11922;DHT22;6021;51.182;3.160;2023-04-15T10:45:33;13.10;1.00
11922;DHT22;6021;51.182;3.160;2023-04-15T10:48:06;13.40;1.00
11922;DHT22;6021;51.182;3.160;2023-04-15T10:50:36;13.40;1.00
11922;DHT22;6021;51.182;3.160;2023-04-15T10:53:05;13.40;1.00
11922;DHT22;6021;51.182;3.160;2023-04-15T10:55:35;13.50;1.00
11922;DHT22;6021;51.182;3.160;2023-04-15T10:58:03;13.70;1.00
11922;DHT22;6021;51.182;3.160;2023-04-15T11:00:32;13.90;1.00
11922;DHT22;6021;51.182;3.160;2023-04-15T11:03:39;14.50;1.00
11922;DHT22;6021;51.182;3.160;2023-04-15T11:06:09;14.80;1.00
11922;DHT22;6021;51.182;3.160;2023-04-15T11:08:57;15.10;1.00
11922;DHT22;6021;51.182;3.160;2023-04-15T11:12:05;15.40;1.00
11922;DHT22;6021;51.182;3.160;2023-04-15T11:14:39;15.50;1.00
11922;DHT22;6021;51.182;3.160;2023-04-15T11:17:13;15.70;1.00
11922;DHT22;6021;51.182;3.160;2023-04-15T11:19:41;15.50;1.00
11922;DHT22;6021;51.182;3.160;2023-04-15T11:22:23;15.30;1.00
11922;DHT22;6021;51.182;3.160;2023-04-15T11:24:48;15.30;1.00
11922;DHT22;6021;51.182;3.160;2023-04-15T11:27:21;15.20;1.00
11922;DHT22;6021;51.182;3.160;2023-04-15T11:29:53;15.00;1.00
11922;DHT22;6021;51.182;3.160;2023-04-15T11:32:21;14.80;1.00
11922;DHT22;6021;51.182;3.160;2023-04-15T11:34:51;14.50;1.00
11922;DHT22;6021;51.182;3.160;2023-04-15T11:37:26;14.40;1.00
11922;DHT22;6021;51.182;3.160;2023-04-15T11:39:52;14.40;1.00
11922;DHT22;6021;51.182;3.160;2023-04-15T11:42:20;14.40;1.00
11922;DHT22;6021;51.182;3.160;2023-04-15T11:44:49;14.40;1.00
11922;DHT22;6021;51.182;3.160;2023-04-15T11:47:24;14.50;1.00
11922;DHT22;6021;51.182;3.160;2023-04-15T11:49:55;14.80;1.00
11922;DHT22;6021;51.182;3.160;2023-04-15T11:52:25;15.00;1.00
11922;DHT22;6021;51.182;3.160;2023-04-15T11:55:01;15.10;1.00
11922;DHT22;6021;51.182;3.160;2023-04-15T11:57:31;15.00;1.00
11922;DHT22;6021;51.182;3.160;2023-04-15T12:00:00;15.10;1.00
11922;DHT22;6021;51.182;3.160;2023-04-15T12:02:37;15.30;1.00
11922;DHT22;6021;51.182;3.160;2023-04-15T12:05:08;15.10;1.00
11922;DHT22;6021;51.182;3.160;2023-04-15T12:07:59;15.00;1.00
11922;DHT22;6021;51.182;3.160;2023-04-15T12:10:35;15.00;1.00
11922;DHT22;6021;51.182;3.160;2023-04-15T12:13:06;15.50;1.00
11922;DHT22;6021;51.182;3.160;2023-04-15T12:15:39;15.20;1.00
11922;DHT22;6021;51.182;3.160;2023-04-15T12:18:16;15.30;1.00
11922;DHT22;6021;51.182;3.160;2023-04-15T12:20:47;15.40;1.00
11922;DHT22;6021;51.182;3.160;2023-04-15T12:23:20;15.30;1.00
11922;DHT22;6021;51.182;3.160;2023-04-15T12:25:52;15.50;1.00
11922;DHT22;6021;51.182;3.160;2023-04-15T12:28:20;15.60;1.00
11922;DHT22;6021;51.182;3.160;2023-04-15T12:30:50;15.90;1.00
11922;DHT22;6021;51.182;3.160;2023-04-15T12:33:23;15.90;1.00
11922;DHT22;6021;51.182;3.160;2023-04-15T12:35:53;15.90;1.00
11922;DHT22;6021;51.182;3.160;2023-04-15T12:38:22;15.80;1.00
11922;DHT22;6021;51.182;3.160;2023-04-15T12:40:53;15.70;1.00
11922;DHT22;6021;51.182;3.160;2023-04-15T12:43:22;15.20;1.00
11922;DHT22;6021;51.182;3.160;2023-04-15T12:45:53;14.90;1.00
11922;DHT22;6021;51.182;3.160;2023-04-15T12:48:22;14.80;1.00
11922;DHT22;6021;51.182;3.160;2023-04-15T12:50:57;15.20;1.00
11922;DHT22;6021;51.182;3.160;2023-04-15T12:53:26;15.00;1.00
11922;DHT22;6021;51.182;3.160;2023-04-15T12:55:58;15.20;1.00
11922;DHT22;6021;51.182;3.160;2023-04-15T12:58:26;15.00;1.00
11922;DHT22;6021;51.182;3.160;2023-04-15T13:00:56;15.00;1.00
11922;DHT22;6021;51.182;3.160;2023-04-15T13:03:25;15.10;1.00
11922;DHT22;6021;51.182;3.160;2023-04-15T13:05:53;15.10;1.00
11922;DHT22;6021;51.182;3.160;2023-04-15T13:08:22;15.00;1.00
11922;DHT22;6021;51.182;3.160;2023-04-15T13:10:50;15.00;1.00
11922;DHT22;6021;51.182;3.160;2023-04-15T13:13:32;15.10;1.00
11922;DHT22;6021;51.182;3.160;2023-04-15T13:16:15;15.10;1.00
11922;DHT22;6021;51.182;3.160;2023-04-15T13:18:54;15.00;1.00
11922;DHT22;6021;51.182;3.160;2023-04-15T13:21:26;15.00;1.00
11922;DHT22;6021;51.182;3.160;2023-04-15T13:27:01;14.80;1.00
11922;DHT22;6021;51.182;3.160;2023-04-15T13:32:14;14.80;1.00
11922;DHT22;6021;51.182;3.160;2023-04-15T13:34:47;14.80;1.00
11922;DHT22;6021;51.182;3.160;2023-04-15T13:37:26;14.90;1.00
11922;DHT22;6021;51.182;3.160;2023-04-15T13:40:24;15.00;1.00
11922;DHT22;6021;51.182;3.160;2023-04-15T13:42:41;14.90;1.00
11922;DHT22;6021;51.182;3.160;2023-04-15T13:45:18;14.80;1.00
11922;DHT22;6021;51.182;3.160;2023-04-15T13:47:50;14.60;1.00
11922;DHT22;6021;51.182;3.160;2023-04-15T13:50:28;14.50;1.00
11922;DHT22;6021;51.182;3.160;2023-04-15T13:53:05;14.40;1.00
11922;DHT22;6021;51.182;3.160;2023-04-15T13:55:33;14.20;1.00
11922;DHT22;6021;51.182;3.160;2023-04-15T13:58:02;14.20;1.00
11922;DHT22;6021;51.182;3.160;2023-04-15T14:00:37;14.20;1.00
11922;DHT22;6021;51.182;3.160;2023-04-15T14:03:02;14.20;1.00
11922;DHT22;6021;51.182;3.160;2023-04-15T14:05:47;14.10;1.00
11922;DHT22;6021;51.182;3.160;2023-04-15T14:08:18;14.10;1.00
11922;DHT22;6021;51.182;3.160;2023-04-15T14:10:49;14.00;1.00
11922;DHT22;6021;51.182;3.160;2023-04-15T14:13:23;14.00;1.00
11922;DHT22;6021;51.182;3.160;2023-04-15T14:16:02;14.00;1.00
11922;DHT22;6021;51.182;3.160;2023-04-15T14:21:25;14.00;1.00
11922;DHT22;6021;51.182;3.160;2023-04-15T14:24:06;14.00;1.00
11922;DHT22;6021;51.182;3.160;2023-04-15T14:26:34;14.00;1.00
11922;DHT22;6021;51.182;3.160;2023-04-15T14:29:03;13.90;1.00
11922;DHT22;6021;51.182;3.160;2023-04-15T14:31:32;13.80;1.00
11922;DHT22;6021;51.182;3.160;2023-04-15T14:34:00;13.80;1.00
11922;DHT22;6021;51.182;3.160;2023-04-15T14:36:29;13.80;1.00
11922;DHT22;6021;51.182;3.160;2023-04-15T14:38:58;13.90;1.00
11922;DHT22;6021;51.182;3.160;2023-04-15T14:41:33;13.60;1.00
11922;DHT22;6021;51.182;3.160;2023-04-15T14:44:04;13.60;1.00
11922;DHT22;6021;51.182;3.160;2023-04-15T14:46:35;13.90;1.00
11922;DHT22;6021;51.182;3.160;2023-04-15T14:49:14;13.80;1.00
11922;DHT22;6021;51.182;3.160;2023-04-15T14:51:47;13.80;1.00
11922;DHT22;6021;51.182;3.160;2023-04-15T14:54:15;13.70;1.00
11922;DHT22;6021;51.182;3.160;2023-04-15T14:56:44;13.60;1.00
11922;DHT22;6021;51.182;3.160;2023-04-15T14:59:29;13.70;1.00
11922;DHT22;6021;51.182;3.160;2023-04-15T15:02:02;13.70;1.00
11922;DHT22;6021;51.182;3.160;2023-04-15T15:07:17;13.60;1.00
11922;DHT22;6021;51.182;3.160;2023-04-15T15:09:47;13.70;1.00
11922;DHT22;6021;51.182;3.160;2023-04-15T15:12:16;13.80;1.00
11922;DHT22;6021;51.182;3.160;2023-04-15T15:14:50;13.80;1.00
11922;DHT22;6021;51.182;3.160;2023-04-15T15:17:21;13.70;1.00
11922;DHT22;6021;51.182;3.160;2023-04-15T15:19:49;13.60;1.00
11922;DHT22;6021;51.182;3.160;2023-04-15T15:22:21;13.50;1.00
11922;DHT22;6021;51.182;3.160;2023-04-15T15:24:50;13.50;1.00
11922;DHT22;6021;51.182;3.160;2023-04-15T15:27:21;13.40;1.00
11922;DHT22;6021;51.182;3.160;2023-04-15T15:29:52;13.40;1.00
11922;DHT22;6021;51.182;3.160;2023-04-15T15:32:24;13.20;1.00
11922;DHT22;6021;51.182;3.160;2023-04-15T15:40:20;13.00;1.00
11922;DHT22;6021;51.182;3.160;2023-04-15T15:42:57;13.00;1.00
11922;DHT22;6021;51.182;3.160;2023-04-15T15:45:31;13.00;1.00
11922;DHT22;6021;51.182;3.160;2023-04-15T15:48:16;13.00;1.00
11922;DHT22;6021;51.182;3.160;2023-04-15T15:50:54;12.90;1.00
11922;DHT22;6021;51.182;3.160;2023-04-15T15:53:32;12.50;1.00
11922;DHT22;6021;51.182;3.160;2023-04-15T15:56:07;12.60;1.00
11922;DHT22;6021;51.182;3.160;2023-04-15T15:58:36;12.70;1.00
11922;DHT22;6021;51.182;3.160;2023-04-15T16:04:11;12.50;1.00
11922;DHT22;6021;51.182;3.160;2023-04-15T16:06:49;12.60;1.00
11922;DHT22;6021;51.182;3.160;2023-04-15T16:09:39;12.50;1.00
11922;DHT22;6021;51.182;3.160;2023-04-15T16:13:24;12.50;1.00
11922;DHT22;6021;51.182;3.160;2023-04-15T16:15:23;12.40;1.00
11922;DHT22;6021;51.182;3.160;2023-04-15T16:17:58;12.30;1.00
11922;DHT22;6021;51.182;3.160;2023-04-15T16:20:55;12.30;1.00
11922;DHT22;6021;51.182;3.160;2023-04-15T16:23:23;12.10;1.00
11922;DHT22;6021;51.182;3.160;2023-04-15T16:26:04;12.10;1.00
11922;DHT22;6021;51.182;3.160;2023-04-15T16:28:41;12.10;1.00
11922;DHT22;6021;51.182;3.160;2023-04-15T16:31:25;12.10;1.00
11922;DHT22;6021;51.182;3.160;2023-04-15T16:33:58;12.10;1.00
11922;DHT22;6021;51.182;3.160;2023-04-15T16:36:35;12.20;1.00
11922;DHT22;6021;51.182;3.160;2023-04-15T16:39:08;12.00;1.00
11922;DHT22;6021;51.182;3.160;2023-04-15T16:41:41;11.80;1.00
11922;DHT22;6021;51.182;3.160;2023-04-15T16:44:13;11.90;1.00
11922;DHT22;6021;51.182;3.160;2023-04-15T16:46:44;12.00;1.00